Time;durP1;ratioP1;P1;durP2;ratioP2;P2;SDS_P1;SDS_P2;PMS_P1;PMS_P2;Temp;Humidity;BMP_temperature;BMP_pressure;BME280_temperature;BME280_humidity;BME280_pressure;Samples;Min_cycle;Max_cycle;Signal;HPM_P1;HPM_P2
2022/10/20 00:01:54;;;;;;;;;;;;;;;15.24;72.78;101330.84;5024416;28;19917;-82
2022/10/20 00:04:38;;;;;;;;;;;;;;;15.35;72.12;101334.81;5022041;28;19917;-82
2022/10/20 00:07:22;;;;;;;;;;;;;;;15.31;72.04;101333.88;5036948;28;20376;-83
2022/10/20 00:10:07;;;;;;;;;;;;;;;15.29;72.18;101335.34;5041314;28;19921;-83
2022/10/20 00:12:52;;;;;;;;;;;;;;;15.25;72.46;101342.63;5023523;28;19917;-83
2022/10/20 00:15:36;;;;;;;;;;;;;;;15.25;72.75;101334.41;5055339;28;19925;-84
2022/10/20 00:18:21;;;;;;;;;;;;;;;15.23;72.79;101334.75;5035413;28;20387;-84
2022/10/20 00:21:08;;;;;;;;;;;;;;;15.19;72.99;101344.75;5042125;28;19917;-83
2022/10/20 00:23:53;;;;;;;;;;;;;;;15.17;73.48;101344.28;5073491;28;19916;-83
2022/10/20 00:26:37;;;;;;;;;;;;;;;15.17;73.66;101341.56;5055223;28;19916;-83
2022/10/20 00:29:22;;;;;;;;;;;;;;;15.16;73.87;101341.88;5037510;28;19921;-83
2022/10/20 00:32:06;;;;;;;;;;;;;;;15.32;72.97;101340.97;5035306;28;19917;-83
2022/10/20 00:34:51;;;;;;;;;;;;;;;15.37;72.61;101342.72;5052762;28;19917;-83
2022/10/20 00:37:35;;;;;;;;;;;;;;;15.39;72.25;101333.00;5045001;28;19916;-83
2022/10/20 00:40:19;;;;;;;;;;;;;;;15.44;71.79;101328.50;5038309;28;19917;-83
2022/10/20 00:43:08;;;;;;;;;;;;;;;15.38;71.69;101327.88;5025871;28;19917;-82
2022/10/20 00:45:54;;;;;;;;;;;;;;;15.37;71.59;101327.09;5038647;28;19918;-83
2022/10/20 00:48:41;;;;;;;;;;;;;;;15.43;71.16;101324.16;5043485;28;19920;-83
2022/10/20 00:51:28;;;;;;;;;;;;;;;15.52;70.56;101322.19;5057809;28;20292;-83
2022/10/20 00:54:15;;;;;;;;;;;;;;;15.40;70.79;101323.66;5045533;28;19924;-82
2022/10/20 00:56:59;;;;;;;;;;;;;;;15.24;71.03;101328.13;5058317;28;19920;-83
2022/10/20 00:59:44;;;;;;;;;;;;;;;15.12;71.47;101328.03;5045593;28;19917;-83
2022/10/20 01:02:29;;;;;;;;;;;;;;;15.18;71.36;101325.91;5038325;28;19917;-83
2022/10/20 01:05:13;;;;;;;;;;;;;;;15.12;71.40;101329.97;5023297;28;20388;-83
2022/10/20 01:07:57;;;;;;;;;;;;;;;15.13;71.29;101315.16;5037978;28;19917;-83
2022/10/20 01:10:50;;;;;;;;;;;;;;;14.95;71.47;101308.94;5054730;28;19921;-82
2022/10/20 01:13:40;;;;;;;;;;;;;;;14.88;71.64;101314.16;5042104;28;19916;-83
2022/10/20 01:16:29;;;;;;;;;;;;;;;14.85;72.01;101314.78;5057921;28;19917;-83
2022/10/20 01:19:16;;;;;;;;;;;;;;;14.72;72.57;101311.16;5041361;28;19917;-83
2022/10/20 01:22:07;;;;;;;;;;;;;;;14.79;72.25;101311.44;5038614;28;19917;-83
2022/10/20 01:25:00;;;;;;;;;;;;;;;14.79;72.36;101316.09;5037559;28;20384;-83
2022/10/20 01:27:51;;;;;;;;;;;;;;;14.78;72.19;101320.78;5024019;28;20308;-84
2022/10/20 01:30:40;;;;;;;;;;;;;;;14.92;71.68;101315.09;5040723;28;19921;-84
2022/10/20 01:33:36;;;;;;;;;;;;;;;14.88;71.54;101319.63;5069458;28;19917;-84
2022/10/20 01:36:30;;;;;;;;;;;;;;;14.92;71.52;101317.84;5042420;28;19920;-84
2022/10/20 01:39:18;;;;;;;;;;;;;;;14.88;71.24;101316.88;5057196;28;19916;-84
2022/10/20 01:42:04;;;;;;;;;;;;;;;14.90;71.29;101318.16;5056322;28;19916;-84
2022/10/20 01:44:51;;;;;;;;;;;;;;;14.87;71.29;101307.88;5036584;28;19924;-83
2022/10/20 01:47:36;;;;;;;;;;;;;;;14.95;70.84;101311.69;5036994;28;19917;-83
2022/10/20 01:50:22;;;;;;;;;;;;;;;14.90;70.94;101311.88;5036782;28;19921;-84
2022/10/20 01:53:07;;;;;;;;;;;;;;;14.77;71.33;101305.50;5036626;28;20304;-83
2022/10/20 01:55:53;;;;;;;;;;;;;;;14.62;71.86;101303.31;5026397;28;19917;-83
2022/10/20 01:58:57;;;;;;;;;;;;;;;14.72;71.31;101297.47;5023303;28;20396;-84
2022/10/20 02:01:41;;;;;;;;;;;;;;;14.52;72.09;101300.94;5055541;28;19917;-83
2022/10/20 02:04:44;;;;;;;;;;;;;;;14.57;72.03;101308.16;5042406;28;20292;-83
2022/10/20 02:07:31;;;;;;;;;;;;;;;14.45;72.41;101315.09;5024761;28;20333;-83
2022/10/20 02:10:21;;;;;;;;;;;;;;;14.45;72.41;101309.63;5056451;28;19928;-83
2022/10/20 02:13:08;;;;;;;;;;;;;;;14.43;72.55;101302.88;5052418;28;19917;-83
2022/10/20 02:15:54;;;;;;;;;;;;;;;14.34;72.86;101308.34;5022320;28;20384;-83
2022/10/20 02:18:40;;;;;;;;;;;;;;;14.41;73.01;101310.63;5026041;28;19917;-83
2022/10/20 02:21:25;;;;;;;;;;;;;;;14.38;72.98;101311.25;5036434;28;19917;-83
2022/10/20 02:24:11;;;;;;;;;;;;;;;14.28;73.31;101312.38;5035988;28;20380;-82
2022/10/20 02:26:57;;;;;;;;;;;;;;;14.20;73.66;101315.94;5036449;28;20376;-84
2022/10/20 02:29:45;;;;;;;;;;;;;;;14.15;74.05;101305.16;5036086;28;19921;-83
2022/10/20 02:32:31;;;;;;;;;;;;;;;14.24;73.74;101305.16;5036438;28;19917;-84
2022/10/20 02:35:20;;;;;;;;;;;;;;;14.34;73.24;101297.41;5051898;28;19916;-84
2022/10/20 02:38:05;;;;;;;;;;;;;;;14.44;72.91;101297.06;5036300;28;19921;-84
2022/10/20 02:40:49;;;;;;;;;;;;;;;14.30;73.10;101296.44;5036196;28;19917;-83
2022/10/20 02:43:34;;;;;;;;;;;;;;;14.38;73.01;101303.03;5036109;28;19917;-83
2022/10/20 02:46:18;;;;;;;;;;;;;;;14.24;73.70;101296.94;5053116;28;19917;-83
2022/10/20 02:49:02;;;;;;;;;;;;;;;14.21;73.51;101308.53;5030987;28;19925;-84
2022/10/20 02:54:57;;;;;;;;;;;;;;;13.92;74.46;101307.28;4984535;28;19955;-80
2022/10/20 02:57:42;;;;;;;;;;;;;;;14.07;74.11;101314.97;5031275;28;19921;-80
2022/10/20 03:00:29;;;;;;;;;;;;;;;13.99;74.15;101306.78;5039043;28;19918;-80
2022/10/20 03:03:14;;;;;;;;;;;;;;;13.99;74.50;101317.72;5026681;28;19917;-81
2022/10/20 03:06:05;;;;;;;;;;;;;;;13.94;74.51;101318.72;5006124;28;21938;-80
2022/10/20 03:08:49;;;;;;;;;;;;;;;13.88;74.61;101320.00;5004066;28;20389;-79
2022/10/20 03:11:34;;;;;;;;;;;;;;;13.92;74.56;101320.13;5001531;28;19918;-80
2022/10/20 03:14:18;;;;;;;;;;;;;;;13.91;74.62;101324.84;5004148;28;20409;-77
2022/10/20 03:17:02;;;;;;;;;;;;;;;13.87;74.58;101323.03;5004638;28;20292;-77
2022/10/20 03:19:47;;;;;;;;;;;;;;;13.87;74.79;101315.63;5039409;28;19917;-79
2022/10/20 03:22:31;;;;;;;;;;;;;;;13.97;74.46;101322.72;4998679;28;19918;-79
2022/10/20 03:25:16;;;;;;;;;;;;;;;14.03;73.91;101322.22;4992836;28;19918;-80
2022/10/20 03:28:00;;;;;;;;;;;;;;;14.04;73.63;101323.03;5024728;28;20386;-80
2022/10/20 03:30:45;;;;;;;;;;;;;;;14.03;73.47;101324.16;4992757;28;20393;-79
2022/10/20 03:33:30;;;;;;;;;;;;;;;14.02;73.40;101319.81;5020013;28;19917;-80
2022/10/20 03:36:15;;;;;;;;;;;;;;;14.03;73.57;101322.22;4992847;28;19918;-79
2022/10/20 03:38:59;;;;;;;;;;;;;;;14.14;73.12;101328.97;5022699;28;19918;-80
2022/10/20 03:41:43;;;;;;;;;;;;;;;14.15;73.31;101327.06;4992863;28;20361;-80
2022/10/20 03:44:28;;;;;;;;;;;;;;;14.14;73.40;101331.72;5010076;28;19917;-79
2022/10/20 03:47:12;;;;;;;;;;;;;;;14.17;73.04;101335.72;5008906;28;20392;-78
2022/10/20 03:49:56;;;;;;;;;;;;;;;14.17;73.04;101337.69;4992527;28;19922;-78
2022/10/20 03:52:41;;;;;;;;;;;;;;;14.13;73.33;101337.50;5009195;28;19918;-81
2022/10/20 03:55:25;;;;;;;;;;;;;;;14.08;73.43;101343.13;5023384;28;19918;-78
2022/10/20 03:58:10;;;;;;;;;;;;;;;14.10;73.19;101344.44;4992697;28;19918;-79
2022/10/20 04:00:54;;;;;;;;;;;;;;;14.12;73.32;101355.84;5019729;28;19922;-81
2022/10/20 04:03:38;;;;;;;;;;;;;;;14.06;73.68;101348.16;5020523;28;19918;-78
2022/10/20 04:06:23;;;;;;;;;;;;;;;13.95;73.85;101346.84;5022024;28;19918;-80
2022/10/20 04:09:07;;;;;;;;;;;;;;;13.82;74.11;101339.59;4992882;28;20105;-78
2022/10/20 04:11:52;;;;;;;;;;;;;;;13.90;74.22;101338.81;4996123;28;19921;-77
2022/10/20 04:14:36;;;;;;;;;;;;;;;13.84;74.30;101342.84;4995934;28;20301;-77
2022/10/20 04:17:20;;;;;;;;;;;;;;;13.85;73.86;101345.25;4996537;28;19918;-77
2022/10/20 04:20:06;;;;;;;;;;;;;;;13.80;73.99;101355.53;4995972;28;19921;-79
2022/10/20 04:22:50;;;;;;;;;;;;;;;13.85;72.81;101352.66;5003288;28;19917;-77
2022/10/20 04:25:38;;;;;;;;;;;;;;;13.73;72.97;101355.19;5000219;28;19917;-78
2022/10/20 04:28:22;;;;;;;;;;;;;;;13.57;74.18;101358.41;5001929;28;19925;-78
2022/10/20 04:31:07;;;;;;;;;;;;;;;13.66;74.43;101344.75;4999455;28;19922;-80
2022/10/20 04:33:51;;;;;;;;;;;;;;;13.56;74.39;101345.84;5035047;28;19918;-78
2022/10/20 04:36:36;;;;;;;;;;;;;;;13.48;75.36;101348.59;5041647;28;19918;-79
2022/10/20 04:39:20;;;;;;;;;;;;;;;13.31;75.99;101338.41;5033622;28;19918;-82
2022/10/20 04:42:05;;;;;;;;;;;;;;;13.40;76.02;101347.47;5020963;28;19941;-76
2022/10/20 04:44:49;;;;;;;;;;;;;;;13.33;76.38;101347.13;4997393;28;19922;-79
2022/10/20 04:47:33;;;;;;;;;;;;;;;13.55;76.48;101349.72;5004918;28;19917;-77
2022/10/20 04:50:18;;;;;;;;;;;;;;;13.60;75.90;101352.31;5007842;28;19922;-77
2022/10/20 04:53:15;;;;;;;;;;;;;;;13.60;75.67;101346.84;5025915;28;19925;-77
2022/10/20 04:55:59;;;;;;;;;;;;;;;13.71;76.32;101348.13;5002801;28;19918;-77
2022/10/20 04:58:48;;;;;;;;;;;;;;;13.71;76.58;101352.81;5010773;28;19917;-77
2022/10/20 05:01:33;;;;;;;;;;;;;;;13.73;76.33;101358.75;5008715;28;19918;-77
2022/10/20 05:04:20;;;;;;;;;;;;;;;13.76;76.58;101360.03;5012657;28;20451;-76
2022/10/20 05:07:04;;;;;;;;;;;;;;;13.43;75.82;101363.19;4995814;28;19922;-78
2022/10/20 05:09:49;;;;;;;;;;;;;;;13.44;76.99;101359.34;4996031;28;19922;-78
2022/10/20 05:12:33;;;;;;;;;;;;;;;13.44;76.74;101361.28;5002650;28;20397;-78
2022/10/20 05:15:18;;;;;;;;;;;;;;;13.12;77.32;101368.75;5022381;28;19917;-78
2022/10/20 05:18:02;;;;;;;;;;;;;;;12.97;79.20;101366.41;5002089;28;19925;-78
2022/10/20 05:20:47;;;;;;;;;;;;;;;12.73;78.96;101361.31;4996068;28;19918;-78
2022/10/20 05:23:31;;;;;;;;;;;;;;;12.59;80.16;101362.53;4996109;28;19925;-78
2022/10/20 05:26:16;;;;;;;;;;;;;;;12.35;82.02;101357.41;5006298;28;19926;-77
2022/10/20 05:29:02;;;;;;;;;;;;;;;12.67;81.89;101354.38;5007395;28;20297;-77
2022/10/20 05:31:47;;;;;;;;;;;;;;;12.91;80.76;101361.38;5003417;28;19922;-78
2022/10/20 05:34:31;;;;;;;;;;;;;;;13.07;79.44;101359.84;5003254;28;19918;-77
2022/10/20 05:37:15;;;;;;;;;;;;;;;13.31;77.98;101356.75;5010039;28;19925;-77
2022/10/20 05:40:02;;;;;;;;;;;;;;;13.39;78.60;101350.50;4982994;28;19918;-76
2022/10/20 05:42:46;;;;;;;;;;;;;;;13.33;78.88;101358.03;5038089;28;19917;-77
2022/10/20 05:45:31;;;;;;;;;;;;;;;13.49;78.18;101367.41;5032701;28;20376;-77
2022/10/20 05:48:15;;;;;;;;;;;;;;;13.57;77.01;101363.06;5014789;28;19925;-77
2022/10/20 05:51:08;;;;;;;;;;;;;;;13.47;77.26;101369.63;5014826;28;20173;-77
2022/10/20 05:53:56;;;;;;;;;;;;;;;13.50;77.23;101371.75;5014669;28;19921;-77
2022/10/20 05:56:40;;;;;;;;;;;;;;;13.66;77.20;101372.88;5014621;28;19918;-77
2022/10/20 05:59:24;;;;;;;;;;;;;;;13.92;75.15;101381.09;5014203;28;19918;-76
2022/10/20 06:02:09;;;;;;;;;;;;;;;13.87;74.86;101373.06;5014388;28;19917;-77
2022/10/20 06:04:54;;;;;;;;;;;;;;;14.10;74.79;101379.19;5014451;28;19918;-77
2022/10/20 06:07:38;;;;;;;;;;;;;;;14.38;73.16;101393.34;5015118;28;19925;-76
2022/10/20 06:10:23;;;;;;;;;;;;;;;15.13;74.50;101391.84;4987575;28;20393;-76
2022/10/20 06:13:09;;;;;;;;;;;;;;;15.61;70.77;101400.47;4989280;28;20397;-77
2022/10/20 06:15:53;;;;;;;;;;;;;;;16.00;69.35;101393.75;4989380;28;19925;-76
2022/10/20 06:18:38;;;;;;;;;;;;;;;16.25;67.23;101395.47;5004493;28;19918;-77
2022/10/20 06:21:23;;;;;;;;;;;;;;;16.42;66.36;101401.94;5006350;28;19922;-77
2022/10/20 06:24:08;;;;;;;;;;;;;;;16.65;65.51;101404.00;5004449;28;19918;-77
2022/10/20 06:26:53;;;;;;;;;;;;;;;16.57;65.76;101401.31;5003839;28;19918;-79
2022/10/20 06:29:37;;;;;;;;;;;;;;;16.79;65.68;101397.38;5003937;28;19918;-78
2022/10/20 06:32:22;;;;;;;;;;;;;;;16.88;64.32;101396.16;4994990;28;19918;-77
2022/10/20 06:35:06;;;;;;;;;;;;;;;17.13;64.51;101402.47;4997304;28;19917;-78
2022/10/20 06:37:51;;;;;;;;;;;;;;;17.29;64.08;101395.16;5007270;28;19922;-78
2022/10/20 06:40:35;;;;;;;;;;;;;;;17.43;63.70;101400.28;5015770;28;19917;-78
2022/10/20 06:43:20;;;;;;;;;;;;;;;17.65;63.23;101407.31;5029114;28;19917;-78
2022/10/20 06:46:06;;;;;;;;;;;;;;;17.73;63.47;101409.91;5009281;28;19926;-77
2022/10/20 06:48:51;;;;;;;;;;;;;;;17.88;62.99;101420.22;5006177;28;19918;-78
2022/10/20 06:51:36;;;;;;;;;;;;;;;17.86;63.52;101418.97;5002102;28;20105;-78
2022/10/20 06:54:21;;;;;;;;;;;;;;;17.78;63.84;101428.13;5002649;28;19917;-79
2022/10/20 06:57:05;;;;;;;;;;;;;;;17.90;63.69;101437.19;5004217;28;19922;-78
2022/10/20 06:59:49;;;;;;;;;;;;;;;18.07;62.89;101435.31;4992976;28;19918;-77
2022/10/20 07:02:33;;;;;;;;;;;;;;;18.23;62.38;101427.94;4998509;28;20377;-78
2022/10/20 07:05:18;;;;;;;;;;;;;;;18.46;61.20;101422.66;5035261;28;19918;-79
2022/10/20 07:08:03;;;;;;;;;;;;;;;18.61;61.03;101431.00;5000677;28;20325;-77
2022/10/20 07:10:55;;;;;;;;;;;;;;;18.61;60.84;101428.25;5009171;28;19921;-78
2022/10/20 07:13:41;;;;;;;;;;;;;;;18.75;60.13;101430.59;5013378;28;19922;-76
2022/10/20 07:16:26;;;;;;;;;;;;;;;19.03;59.40;101433.31;5012650;28;19918;-79
2022/10/20 07:19:11;;;;;;;;;;;;;;;19.37;58.28;101432.56;5002143;28;19918;-76
2022/10/20 07:21:55;;;;;;;;;;;;;;;19.66;57.64;101433.31;4997618;28;20380;-78
2022/10/20 07:24:40;;;;;;;;;;;;;;;19.97;57.01;101431.25;5009415;28;20300;-78
2022/10/20 07:27:24;;;;;;;;;;;;;;;20.34;55.49;101437.19;5001189;28;19917;-78
2022/10/20 07:30:09;;;;;;;;;;;;;;;20.68;53.84;101434.69;5002332;28;19922;-78
2022/10/20 07:32:54;;;;;;;;;;;;;;;20.60;54.37;101422.69;5006776;28;19917;-77
2022/10/20 07:35:38;;;;;;;;;;;;;;;20.46;53.91;101419.66;4997893;28;19922;-78
2022/10/20 07:38:23;;;;;;;;;;;;;;;19.83;55.82;101430.13;5001318;28;19921;-78
2022/10/20 07:41:08;;;;;;;;;;;;;;;19.81;57.11;101432.47;5005193;28;20377;-77
2022/10/20 07:43:54;;;;;;;;;;;;;;;20.21;55.86;101435.72;5007635;28;19922;-76
2022/10/20 07:46:38;;;;;;;;;;;;;;;20.41;55.31;101431.00;5012355;28;19917;-75
2022/10/20 07:49:23;;;;;;;;;;;;;;;20.41;53.99;101440.09;5008959;28;19921;-78
2022/10/20 07:52:07;;;;;;;;;;;;;;;19.66;56.52;101444.34;5002187;28;19922;-80
2022/10/20 07:54:51;;;;;;;;;;;;;;;19.79;56.47;101441.09;5001098;28;20385;-79
2022/10/20 07:57:36;;;;;;;;;;;;;;;20.06;56.21;101442.88;4997804;28;19917;-77
2022/10/20 08:00:20;;;;;;;;;;;;;;;20.24;56.17;101454.31;5036426;28;19917;-77
2022/10/20 08:03:05;;;;;;;;;;;;;;;20.16;56.30;101463.63;4999977;28;20392;-78
2022/10/20 08:05:49;;;;;;;;;;;;;;;20.74;54.61;101463.63;5012646;28;19918;-78
2022/10/20 08:08:34;;;;;;;;;;;;;;;21.12;53.64;101468.28;4998134;28;19918;-77
2022/10/20 08:11:18;;;;;;;;;;;;;;;21.28;52.65;101464.25;5005194;28;20408;-78
2022/10/20 08:14:03;;;;;;;;;;;;;;;21.06;53.25;101472.53;5013662;28;19921;-78
2022/10/20 08:16:47;;;;;;;;;;;;;;;20.75;54.54;101476.28;5030057;28;19918;-76
2022/10/20 08:19:32;;;;;;;;;;;;;;;20.80;54.82;101453.88;5015882;28;19917;-78
2022/10/20 08:22:18;;;;;;;;;;;;;;;20.62;55.86;101449.97;5046203;28;19917;-78
2022/10/20 08:25:03;;;;;;;;;;;;;;;20.89;55.23;101452.47;5044327;28;19921;-76
2022/10/20 08:27:48;;;;;;;;;;;;;;;20.88;55.25;101456.41;5015657;28;19917;-77
2022/10/20 08:30:32;;;;;;;;;;;;;;;20.76;55.29;101458.53;5015555;28;19926;-78
2022/10/20 08:33:17;;;;;;;;;;;;;;;20.69;55.62;101458.41;5015806;28;19917;-78
2022/10/20 08:36:02;;;;;;;;;;;;;;;20.71;55.33;101467.94;5015683;28;19933;-76
2022/10/20 08:38:46;;;;;;;;;;;;;;;20.85;54.45;101461.88;5032138;28;19917;-78
2022/10/20 08:41:32;;;;;;;;;;;;;;;21.29;53.22;101465.84;5044743;28;19918;-79
2022/10/20 08:44:22;;;;;;;;;;;;;;;21.37;53.14;101466.78;5015530;28;19929;-78
2022/10/20 08:47:15;;;;;;;;;;;;;;;21.84;51.98;101471.09;5032440;28;19917;-78
2022/10/20 08:50:01;;;;;;;;;;;;;;;21.95;51.77;101474.81;5015085;28;20293;-77
2022/10/20 08:52:46;;;;;;;;;;;;;;;22.20;51.13;101475.94;5043582;22;19925;-79
2022/10/20 08:55:32;;;;;;;;;;;;;;;21.48;52.39;101470.53;5015494;28;20388;-81
2022/10/20 08:58:19;;;;;;;;;;;;;;;21.51;52.46;101466.22;5044491;28;19917;-81
2022/10/20 09:01:13;;;;;;;;;;;;;;;21.42;53.00;101468.44;5034275;28;19917;-79
2022/10/20 09:04:12;;;;;;;;;;;;;;;21.28;53.64;101480.06;5015736;28;19917;-80
2022/10/20 09:06:59;;;;;;;;;;;;;;;21.48;52.96;101478.03;5015198;28;19917;-79
2022/10/20 09:09:43;;;;;;;;;;;;;;;21.27;52.73;101493.09;5015325;28;19917;-79
2022/10/20 09:12:28;;;;;;;;;;;;;;;21.39;52.90;101481.03;5017075;28;19922;-79
2022/10/20 09:15:14;;;;;;;;;;;;;;;21.63;52.67;101480.66;5014706;28;19918;-79
2022/10/20 09:18:00;;;;;;;;;;;;;;;21.66;52.36;101477.13;5015455;28;19922;-79
2022/10/20 09:20:54;;;;;;;;;;;;;;;21.90;51.87;101478.66;5016719;28;19917;-79
2022/10/20 09:23:40;;;;;;;;;;;;;;;22.21;51.64;101476.75;5014362;28;19918;-79
2022/10/20 09:26:34;;;;;;;;;;;;;;;21.91;51.55;101474.75;5014919;28;20316;-80
2022/10/20 09:29:19;;;;;;;;;;;;;;;21.88;52.24;101477.47;5015414;28;20285;-79
2022/10/20 09:32:16;;;;;;;;;;;;;;;21.36;53.18;101465.19;5014626;28;19925;-80
2022/10/20 09:35:11;;;;;;;;;;;;;;;21.37;53.08;101465.97;5028518;28;19917;-79
2022/10/20 09:37:55;;;;;;;;;;;;;;;21.54;53.91;101474.56;5034860;28;19917;-79
2022/10/20 09:40:52;;;;;;;;;;;;;;;21.69;53.00;101479.16;5043655;28;19918;-79
2022/10/20 09:43:38;;;;;;;;;;;;;;;21.50;54.80;101481.22;5037898;28;19917;-79
2022/10/20 09:46:24;;;;;;;;;;;;;;;21.86;54.42;101482.56;5035119;28;20384;-78
2022/10/20 09:49:21;;;;;;;;;;;;;;;21.92;54.92;101476.34;5042761;28;19918;-79
2022/10/20 09:52:15;;;;;;;;;;;;;;;21.67;54.34;101466.88;5035736;28;19921;-78
2022/10/20 09:55:02;;;;;;;;;;;;;;;21.88;52.96;101469.16;5035618;28;20376;-79
2022/10/20 09:57:47;;;;;;;;;;;;;;;22.07;52.41;101461.53;5037634;28;20388;-79
2022/10/20 10:00:34;;;;;;;;;;;;;;;21.96;52.39;101463.38;5035253;28;19917;-79
2022/10/20 10:03:22;;;;;;;;;;;;;;;22.11;52.52;101467.94;5034016;28;19917;-79
2022/10/20 10:06:25;;;;;;;;;;;;;;;22.18;53.25;101470.81;5034304;28;19917;-80
2022/10/20 10:09:25;;;;;;;;;;;;;;;22.07;53.40;101460.75;5034108;28;19917;-80
2022/10/20 10:12:09;;;;;;;;;;;;;;;22.22;53.19;101456.19;5033839;28;19921;-79
2022/10/20 10:14:54;;;;;;;;;;;;;;;21.96;52.75;101463.38;5036034;28;20308;-79
2022/10/20 10:17:38;;;;;;;;;;;;;;;22.12;52.66;101464.00;5034286;28;19917;-79
2022/10/20 10:20:28;;;;;;;;;;;;;;;22.40;51.17;101463.53;5033796;28;20380;-79
2022/10/20 10:23:35;;;;;;;;;;;;;;;22.60;50.41;101450.34;5033893;28;19917;-79
2022/10/20 10:26:32;;;;;;;;;;;;;;;22.98;49.82;101457.50;5033144;28;19921;-80
2022/10/20 10:29:22;;;;;;;;;;;;;;;22.68;51.04;101462.28;5033700;28;19944;-80
2022/10/20 10:32:13;;;;;;;;;;;;;;;22.52;51.54;101459.72;5034057;28;19921;-79
2022/10/20 10:35:03;;;;;;;;;;;;;;;22.84;50.18;101458.16;5037218;28;19917;-79
2022/10/20 10:37:47;;;;;;;;;;;;;;;22.59;50.18;101462.59;5033469;28;19917;-78
2022/10/20 10:40:35;;;;;;;;;;;;;;;22.72;50.48;101469.50;5033418;28;19917;-80
2022/10/20 10:43:38;;;;;;;;;;;;;;;22.81;50.89;101461.66;5034909;28;19917;-79
2022/10/20 10:46:26;;;;;;;;;;;;;;;23.05;49.30;101454.00;5032616;28;19917;-80
2022/10/20 10:49:22;;;;;;;;;;;;;;;22.92;49.09;101440.38;5032848;28;19917;-81
2022/10/20 10:52:15;;;;;;;;;;;;;;;23.15;48.41;101439.41;5033923;28;19921;-79
2022/10/20 10:55:12;;;;;;;;;;;;;;;23.48;47.80;101442.09;5032053;28;19917;-79
2022/10/20 10:58:06;;;;;;;;;;;;;;;22.84;49.26;101432.38;5035457;28;19917;-81
2022/10/20 11:00:50;;;;;;;;;;;;;;;23.51;48.12;101423.88;5034117;28;19921;-80
2022/10/20 11:03:47;;;;;;;;;;;;;;;22.97;48.57;101426.16;5047182;28;19921;-80
2022/10/20 11:06:43;;;;;;;;;;;;;;;23.47;48.10;101417.50;5033339;28;19916;-79
2022/10/20 11:09:31;;;;;;;;;;;;;;;23.54;46.93;101418.34;5030942;28;19921;-80
2022/10/20 11:12:28;;;;;;;;;;;;;;;23.51;46.71;101415.56;5041183;28;19949;-80
2022/10/20 11:15:28;;;;;;;;;;;;;;;24.37;43.80;101420.38;5038643;28;19917;-79
2022/10/20 11:18:12;;;;;;;;;;;;;;;24.04;45.38;101410.28;5038168;28;19917;-79
2022/10/20 11:21:16;;;;;;;;;;;;;;;23.62;47.09;101399.75;5030895;28;19917;-79
2022/10/20 11:24:28;;;;;;;;;;;;;;;23.82;46.13;101406.63;5033007;28;19921;-79
2022/10/20 11:27:15;;;;;;;;;;;;;;;24.02;44.86;101402.34;5035960;28;19917;-80
2022/10/20 11:30:07;;;;;;;;;;;;;;;24.51;44.43;101401.75;5043221;28;19916;-80
2022/10/20 11:33:00;;;;;;;;;;;;;;;24.01;46.06;101402.75;5039477;28;19921;-79
2022/10/20 11:35:50;;;;;;;;;;;;;;;24.46;44.79;101396.59;5013086;28;20400;-79
2022/10/20 11:38:54;;;;;;;;;;;;;;;24.87;42.93;101385.13;5029543;28;19924;-81
2022/10/20 11:41:49;;;;;;;;;;;;;;;25.01;42.95;101385.97;5042290;28;19917;-79
2022/10/20 11:44:35;;;;;;;;;;;;;;;25.81;41.65;101377.09;5036064;28;19916;-80
2022/10/20 11:47:25;;;;;;;;;;;;;;;25.22;41.84;101365.66;5043062;28;19916;-79
2022/10/20 11:50:10;;;;;;;;;;;;;;;25.01;42.65;101363.69;5052913;28;19917;-79
2022/10/20 11:52:59;;;;;;;;;;;;;;;26.07;39.83;101367.44;5021597;28;829847;-79
2022/10/20 11:55:59;;;;;;;;;;;;;;;24.91;43.32;101370.06;5051853;28;19920;-80
2022/10/20 11:58:58;;;;;;;;;;;;;;;25.92;40.68;101363.94;5052194;28;19917;-79
2022/10/20 12:02:01;;;;;;;;;;;;;;;25.77;41.13;101365.97;5056651;28;19916;-79
2022/10/20 12:04:48;;;;;;;;;;;;;;;25.34;41.34;101359.69;5051105;28;19921;-79
2022/10/20 12:07:52;;;;;;;;;;;;;;;25.62;40.48;101356.06;5030590;28;19916;-78
2022/10/20 12:10:39;;;;;;;;;;;;;;;26.30;38.92;101353.84;5038381;28;19917;-79
2022/10/20 12:13:46;;;;;;;;;;;;;;;26.17;39.46;101350.66;5028778;28;19921;-79
2022/10/20 12:16:57;;;;;;;;;;;;;;;29.76;33.01;101340.22;5035394;28;19917;-79
2022/10/20 12:19:43;;;;;;;;;;;;;;;29.96;31.64;101336.66;5065726;28;20292;-78
2022/10/20 12:22:27;;;;;;;;;;;;;;;28.43;34.42;101330.97;5026372;28;19932;-79
2022/10/20 12:25:18;;;;;;;;;;;;;;;28.62;34.18;101326.66;5034894;28;19918;-81
2022/10/20 12:28:22;;;;;;;;;;;;;;;29.58;32.51;101319.38;5034499;28;19918;-80
2022/10/20 12:31:06;;;;;;;;;;;;;;;28.02;35.43;101311.53;5045154;28;20008;-79
2022/10/20 12:33:52;;;;;;;;;;;;;;;28.83;32.90;101306.75;5029665;28;19921;-79
2022/10/20 12:36:37;;;;;;;;;;;;;;;27.06;36.94;101311.81;5033227;28;19917;-79
2022/10/20 12:39:23;;;;;;;;;;;;;;;26.23;39.03;101298.88;5035667;28;19932;-80
2022/10/20 12:42:20;;;;;;;;;;;;;;;25.78;40.00;101302.69;5032562;28;19917;-79
2022/10/20 12:45:06;;;;;;;;;;;;;;;25.54;41.11;101301.56;5035270;28;19921;-79
2022/10/20 12:47:54;;;;;;;;;;;;;;;25.84;40.20;101299.09;5035360;28;19917;-80
2022/10/20 12:50:42;;;;;;;;;;;;;;;26.07;39.56;101298.56;5034255;28;20393;-79
2022/10/20 12:53:27;;;;;;;;;;;;;;;27.55;36.06;101304.94;5029382;28;19921;-79
2022/10/20 12:56:18;;;;;;;;;;;;;;;30.03;32.40;101302.84;5035704;28;19917;-80
2022/10/20 12:59:08;;;;;;;;;;;;;;;31.64;29.71;101287.16;5036532;28;19917;-79
2022/10/20 13:02:08;;;;;;;;;;;;;;;30.43;31.78;101290.25;5032866;28;19921;-79
2022/10/20 13:04:56;;;;;;;;;;;;;;;31.84;29.60;101302.59;5031850;28;19917;-79
2022/10/20 13:07:47;;;;;;;;;;;;;;;30.09;32.48;101290.66;5033544;28;19917;-80
2022/10/20 13:10:33;;;;;;;;;;;;;;;26.81;38.96;101283.31;5040683;28;19917;-80
2022/10/20 13:13:18;;;;;;;;;;;;;;;26.70;39.28;101282.59;5041151;28;19916;-79
2022/10/20 13:16:05;;;;;;;;;;;;;;;26.77;39.74;101276.94;5029344;28;19929;-79
2022/10/20 13:18:51;;;;;;;;;;;;;;;29.01;35.25;101283.22;5040482;28;19917;-80
2022/10/20 13:21:36;;;;;;;;;;;;;;;29.14;34.38;101284.19;5036806;28;19921;-82
2022/10/20 13:24:29;;;;;;;;;;;;;;;28.27;35.80;101288.03;5042767;28;19917;-81
2022/10/20 13:27:15;;;;;;;;;;;;;;;27.20;36.53;101286.53;5058071;28;20296;-81
2022/10/20 13:29:59;;;;;;;;;;;;;;;26.87;37.67;101276.09;5047674;28;19920;-81
2022/10/20 13:32:53;;;;;;;;;;;;;;;25.60;40.38;101277.66;5038282;28;20304;-81
2022/10/20 13:35:45;;;;;;;;;;;;;;;25.30;40.95;101272.56;5036377;28;19921;-81
2022/10/20 13:38:44;;;;;;;;;;;;;;;25.43;40.66;101273.75;5042283;28;19917;-80
2022/10/20 13:41:29;;;;;;;;;;;;;;;26.39;38.77;101274.09;5036975;28;19917;-81
2022/10/20 13:44:19;;;;;;;;;;;;;;;26.39;38.40;101276.88;5041490;28;19917;-80
2022/10/20 13:47:07;;;;;;;;;;;;;;;25.73;39.35;101270.47;5052457;28;20304;-80
2022/10/20 13:50:04;;;;;;;;;;;;;;;26.29;38.36;101274.16;5059140;28;19932;-80
2022/10/20 13:52:52;;;;;;;;;;;;;;;25.63;39.86;101282.44;5041665;28;19920;-80
2022/10/20 13:55:56;;;;;;;;;;;;;;;25.05;41.20;101285.75;5028691;28;20311;-80
2022/10/20 13:58:41;;;;;;;;;;;;;;;24.54;41.50;101277.78;5057299;28;19924;-80
2022/10/20 14:01:26;;;;;;;;;;;;;;;24.60;41.98;101276.22;5054641;28;19920;-80
2022/10/20 14:04:32;;;;;;;;;;;;;;;24.24;42.80;101273.41;5042364;28;19917;-79
2022/10/20 14:07:17;;;;;;;;;;;;;;;24.10;43.65;101275.34;5032064;28;20308;-80
2022/10/20 14:10:02;;;;;;;;;;;;;;;23.62;44.66;101278.34;5035743;28;19917;-80
2022/10/20 14:12:46;;;;;;;;;;;;;;;23.38;45.00;101276.22;5036770;28;20536;-80
2022/10/20 14:15:32;;;;;;;;;;;;;;;23.57;45.08;101280.72;5057443;28;19920;-80
2022/10/20 14:18:19;;;;;;;;;;;;;;;23.55;44.44;101283.09;5028525;28;19921;-79
2022/10/20 14:21:15;;;;;;;;;;;;;;;23.49;44.80;101282.66;5035164;28;19921;-80
2022/10/20 14:24:01;;;;;;;;;;;;;;;23.34;46.34;101275.41;5040313;28;19931;-80